createdAt,value
2018-10-17T00:02:00.429Z,8.87
2018-10-17T00:04:29.421Z,12.80
2018-10-17T00:06:58.878Z,11.00
2018-10-17T00:09:27.994Z,12.50
2018-10-17T00:11:57.005Z,13.40
2018-10-17T00:14:26.134Z,12.87
2018-10-17T00:16:55.085Z,12.63
2018-10-17T00:19:24.229Z,12.27
2018-10-17T00:21:53.298Z,12.33
2018-10-17T00:24:22.458Z,14.13
2018-10-17T00:26:51.458Z,13.07
2018-10-17T00:29:21.298Z,13.30
2018-10-17T00:31:51.299Z,11.63
2018-10-17T00:34:20.539Z,13.23
2018-10-17T00:36:49.835Z,11.63
2018-10-17T00:39:19.228Z,12.53
2018-10-17T00:41:48.552Z,13.67
2018-10-17T00:44:17.988Z,12.23
2018-10-17T00:46:47.007Z,13.27
2018-10-17T00:49:16.157Z,11.47
2018-10-17T00:51:45.191Z,13.53
2018-10-17T00:54:14.168Z,12.73
2018-10-17T00:56:43.192Z,13.57
2018-10-17T00:59:13.673Z,12.87
2018-10-17T01:01:43.073Z,12.67
2018-10-17T01:04:12.087Z,13.83
2018-10-17T01:06:41.202Z,14.50
2018-10-17T01:09:11.705Z,12.63
2018-10-17T01:11:41.020Z,12.90
2018-10-17T01:14:11.307Z,12.20
2018-10-17T01:16:40.377Z,14.83
2018-10-17T01:19:09.411Z,14.37
2018-10-17T01:21:38.873Z,14.13
2018-10-17T01:24:07.733Z,11.53
2018-10-17T01:26:37.677Z,14.57
2018-10-17T01:29:07.957Z,12.47
2018-10-17T01:31:37.017Z,12.77
2018-10-17T01:34:07.047Z,13.40
2018-10-17T01:36:36.377Z,11.93
2018-10-17T01:39:08.067Z,12.57
2018-10-17T01:41:37.269Z,14.70
2018-10-17T01:44:07.637Z,12.77
2018-10-17T01:46:36.667Z,14.07
2018-10-17T01:49:06.561Z,12.40
2018-10-17T01:51:35.549Z,12.97
2018-10-17T01:54:05.019Z,15.43
2018-10-17T01:56:34.117Z,10.30
2018-10-17T01:59:03.259Z,11.57
2018-10-17T02:01:32.325Z,11.53
2018-10-17T02:04:01.655Z,11.93
2018-10-17T02:06:32.545Z,13.70
2018-10-17T02:09:02.041Z,13.00
2018-10-17T02:11:30.954Z,13.80
2018-10-17T02:13:59.932Z,12.90
2018-10-17T02:16:29.226Z,11.67
2018-10-17T02:18:58.302Z,12.13
2018-10-17T02:21:27.261Z,12.93
2018-10-17T02:23:56.613Z,13.30
2018-10-17T02:26:25.553Z,13.50
2018-10-17T02:28:54.547Z,11.53
2018-10-17T02:31:23.649Z,11.70
2018-10-17T02:33:52.563Z,11.00
2018-10-17T02:36:25.522Z,11.27
2018-10-17T02:38:54.877Z,14.77
2018-10-17T02:41:25.039Z,12.50
2018-10-17T02:43:54.974Z,12.13
2018-10-17T02:46:23.906Z,12.53
2018-10-17T02:48:52.844Z,11.93
2018-10-17T02:51:22.155Z,12.40
2018-10-17T02:53:51.098Z,15.33
2018-10-17T02:56:20.238Z,14.53
2018-10-17T02:58:50.643Z,11.80
2018-10-17T03:01:21.067Z,11.30
2018-10-17T03:03:50.523Z,11.60
2018-10-17T03:06:20.271Z,14.73
2018-10-17T03:08:49.619Z,12.53
2018-10-17T03:11:19.319Z,13.47
2018-10-17T03:13:48.796Z,10.90
2018-10-17T03:16:18.022Z,12.67
2018-10-17T03:18:47.027Z,12.37
2018-10-17T03:21:16.539Z,12.00
2018-10-17T03:23:45.546Z,12.03
2018-10-17T03:26:14.507Z,16.33
2018-10-17T03:28:43.558Z,13.23
2018-10-17T03:31:12.595Z,12.23
2018-10-17T03:33:41.595Z,13.67
2018-10-17T03:36:10.934Z,14.03
2018-10-17T03:38:39.893Z,13.10
2018-10-17T03:41:08.958Z,12.10
2018-10-17T03:43:38.104Z,11.67
2018-10-17T03:46:07.846Z,11.90
2018-10-17T03:48:36.866Z,10.93
2018-10-17T03:51:06.933Z,11.17
2018-10-17T03:53:35.911Z,13.77
2018-10-17T03:56:06.173Z,11.90
2018-10-17T03:58:35.507Z,12.20
2018-10-17T04:01:05.012Z,11.37
2018-10-17T04:03:33.954Z,12.73
2018-10-17T04:06:02.996Z,12.00
2018-10-17T04:08:32.019Z,13.20
2018-10-17T04:11:01.207Z,13.93
2018-10-17T04:13:30.536Z,12.63
2018-10-17T04:15:59.545Z,13.03
2018-10-17T04:18:28.603Z,13.00
2018-10-17T04:20:57.905Z,16.07
2018-10-17T04:23:26.996Z,13.60
2018-10-17T04:25:56.089Z,12.97
2018-10-17T04:28:25.418Z,14.73
2018-10-17T04:30:54.551Z,14.33
2018-10-17T04:33:23.544Z,12.47
2018-10-17T04:35:52.830Z,13.40
2018-10-17T04:38:21.919Z,13.83
2018-10-17T04:40:52.275Z,14.27
2018-10-17T04:43:21.608Z,14.33
2018-10-17T04:45:51.690Z,12.93
2018-10-17T04:48:21.420Z,11.67
2018-10-17T04:50:50.925Z,15.07
2018-10-17T04:53:20.386Z,13.20
2018-10-17T04:55:49.798Z,12.73
2018-10-17T04:58:20.567Z,12.23
2018-10-17T05:00:49.956Z,13.93
2018-10-17T05:03:19.715Z,12.37
2018-10-17T05:05:49.626Z,13.43
2018-10-17T05:08:18.922Z,13.07
2018-10-17T05:10:48.317Z,14.07
2018-10-17T05:13:18.026Z,11.90
2018-10-17T05:15:47.014Z,12.53
2018-10-17T05:18:16.685Z,13.27
2018-10-17T05:20:46.226Z,13.60
2018-10-17T05:23:15.432Z,14.67
2018-10-17T05:25:44.287Z,13.93
2018-10-17T05:28:13.566Z,13.63
2018-10-17T05:30:42.535Z,13.23
2018-10-17T05:33:11.548Z,16.10
2018-10-17T05:35:40.589Z,14.23
2018-10-17T05:38:09.657Z,15.60
2018-10-17T05:40:38.650Z,15.83
2018-10-17T05:43:08.817Z,13.67
2018-10-17T05:45:37.686Z,15.63
2018-10-17T05:48:07.230Z,15.77
2018-10-17T05:50:36.542Z,13.10
2018-10-17T05:53:06.644Z,14.70
2018-10-17T05:55:35.679Z,11.53
2018-10-17T05:58:05.578Z,15.63
2018-10-17T06:00:34.797Z,15.40
2018-10-17T06:03:03.813Z,16.20
2018-10-17T06:05:32.914Z,13.97
2018-10-17T06:08:01.922Z,13.43
2018-10-17T06:10:31.742Z,15.30
2018-10-17T06:13:01.959Z,13.60
2018-10-17T06:15:31.084Z,16.23
2018-10-17T06:18:00.065Z,11.77
2018-10-17T06:20:29.363Z,12.93
2018-10-17T06:22:58.900Z,17.00
2018-10-17T06:25:27.958Z,15.67
2018-10-17T06:27:57.163Z,12.67
2018-10-17T06:30:26.213Z,17.60
2018-10-17T06:32:55.212Z,14.50
2018-10-17T06:35:24.347Z,13.47
2018-10-17T06:37:53.496Z,15.07
2018-10-17T06:40:22.621Z,13.87
2018-10-17T06:42:51.987Z,17.03
2018-10-17T06:45:21.041Z,13.87
2018-10-17T06:47:51.117Z,15.97
2018-10-17T06:50:20.788Z,14.40
2018-10-17T06:52:50.120Z,15.87
2018-10-17T06:55:19.483Z,14.60
2018-10-17T06:57:49.098Z,14.17
2018-10-17T07:00:18.541Z,13.93
2018-10-17T07:02:47.966Z,16.07
2018-10-17T07:05:17.601Z,16.53
2018-10-17T07:07:46.756Z,14.37
2018-10-17T07:10:15.798Z,13.67
2018-10-17T07:12:44.928Z,13.60
2018-10-17T07:15:14.226Z,14.73
2018-10-17T07:17:43.244Z,13.57
2018-10-17T07:20:12.826Z,15.63
2018-10-17T07:22:41.994Z,15.33
2018-10-17T07:25:11.196Z,15.63
2018-10-17T07:27:40.409Z,16.23
2018-10-17T07:30:10.161Z,15.50
2018-10-17T07:32:40.023Z,16.27
2018-10-17T07:35:11.052Z,12.97
2018-10-17T07:37:40.260Z,13.20
2018-10-17T07:40:10.545Z,16.53
2018-10-17T07:42:39.750Z,14.43
2018-10-17T07:45:09.984Z,15.50
2018-10-17T07:47:38.894Z,14.97
2018-10-17T07:50:09.697Z,16.43
2018-10-17T07:52:38.983Z,15.97
2018-10-17T07:55:11.291Z,16.47
2018-10-17T07:57:40.326Z,12.73
2018-10-17T08:00:11.760Z,14.47
2018-10-17T08:02:41.058Z,16.03
2018-10-17T08:05:10.482Z,15.53
2018-10-17T08:07:39.497Z,16.47
2018-10-17T08:10:11.413Z,15.13
2018-10-17T08:12:40.697Z,16.23
2018-10-17T08:15:10.632Z,14.60
2018-10-17T08:17:39.732Z,15.33
2018-10-17T08:20:10.342Z,15.23
2018-10-17T08:22:39.562Z,15.80
2018-10-17T08:25:10.585Z,16.07
2018-10-17T08:27:40.524Z,17.73
2018-10-17T08:30:12.492Z,18.10
2018-10-17T08:32:42.198Z,16.53
2018-10-17T08:35:11.187Z,17.00
2018-10-17T08:37:40.986Z,16.47
2018-10-17T08:40:10.202Z,16.47
2018-10-17T08:42:39.180Z,14.07
2018-10-17T08:45:08.959Z,13.60
2018-10-17T08:47:38.120Z,16.03
2018-10-17T08:50:07.895Z,14.80
2018-10-17T08:52:36.883Z,14.73
2018-10-17T08:55:06.637Z,17.40
2018-10-17T08:57:35.988Z,14.23
2018-10-17T09:00:05.933Z,16.27
2018-10-17T09:02:35.307Z,14.13
2018-10-17T09:05:04.416Z,15.87
2018-10-17T09:07:33.581Z,17.57
2018-10-17T09:10:02.574Z,14.20
2018-10-17T09:12:31.569Z,12.53
2018-10-17T09:15:00.757Z,14.00
2018-10-17T09:17:29.797Z,13.17
2018-10-17T09:19:58.933Z,14.33
2018-10-17T09:22:28.849Z,19.13
2018-10-17T09:24:59.351Z,14.43
2018-10-17T09:27:29.359Z,13.80
2018-10-17T09:29:58.429Z,13.10
2018-10-17T09:32:27.517Z,18.53
2018-10-17T09:34:56.754Z,13.00
2018-10-17T09:37:25.755Z,13.87
2018-10-17T09:39:54.753Z,13.20
2018-10-17T09:42:25.441Z,13.30
2018-10-17T09:44:54.521Z,12.47
2018-10-17T09:47:23.448Z,12.97
2018-10-17T09:49:52.638Z,13.37
2018-10-17T09:52:21.636Z,14.10
2018-10-17T09:54:51.169Z,12.03
2018-10-17T09:57:20.601Z,11.13
2018-10-17T09:59:49.870Z,13.00
2018-10-17T10:02:19.532Z,11.03
2018-10-17T10:04:48.909Z,10.70
2018-10-17T10:07:18.388Z,9.50
2018-10-17T10:09:47.633Z,11.63
2018-10-17T10:12:16.794Z,10.97
2018-10-17T10:14:45.843Z,11.13
2018-10-17T10:17:15.014Z,10.23
2018-10-17T10:19:44.169Z,12.23
2018-10-17T10:22:13.222Z,9.70
2018-10-17T10:24:42.382Z,10.73
2018-10-17T10:27:11.452Z,10.23
2018-10-17T10:29:40.401Z,11.17
2018-10-17T10:32:09.797Z,9.60
2018-10-17T10:34:38.919Z,9.27
2018-10-17T10:37:08.213Z,9.13
2018-10-17T10:39:37.383Z,9.03
2018-10-17T10:42:07.543Z,9.30
2018-10-17T10:44:36.512Z,10.37
2018-10-17T10:47:05.955Z,8.83
2018-10-17T10:49:35.134Z,8.40
2018-10-17T10:52:04.210Z,8.83
2018-10-17T10:54:34.215Z,8.10
2018-10-17T10:57:05.381Z,9.53
2018-10-17T10:59:34.928Z,7.63
2018-10-17T11:02:03.910Z,7.90
2018-10-17T11:04:33.067Z,10.53
2018-10-17T11:07:03.799Z,9.07
2018-10-17T11:09:32.944Z,7.13
2018-10-17T11:12:01.975Z,9.33
2018-10-17T11:14:31.578Z,9.23
2018-10-17T11:17:00.554Z,9.37
2018-10-17T11:19:29.650Z,7.30
2018-10-17T11:21:58.722Z,9.37
2018-10-17T11:24:27.692Z,7.70
2018-10-17T11:26:57.632Z,8.07
2018-10-17T11:29:26.893Z,8.03
2018-10-17T11:31:56.202Z,7.77
2018-10-17T11:34:25.224Z,9.53
2018-10-17T11:36:54.198Z,9.07
2018-10-17T11:39:23.155Z,9.23
2018-10-17T11:41:53.225Z,9.47
2018-10-17T11:44:22.302Z,8.43
2018-10-17T11:46:51.357Z,9.37
2018-10-17T11:49:21.117Z,8.57
2018-10-17T11:51:50.826Z,8.30
2018-10-17T11:54:20.492Z,7.63
2018-10-17T11:56:49.931Z,8.80
2018-10-17T11:59:19.382Z,8.20
2018-10-17T12:01:48.457Z,6.43
2018-10-17T12:04:17.826Z,9.93
2018-10-17T12:06:48.812Z,9.57
2018-10-17T12:09:18.005Z,7.10
2018-10-17T12:11:48.412Z,8.60
2018-10-17T12:14:17.488Z,8.53
2018-10-17T12:16:46.713Z,8.63
2018-10-17T12:19:15.950Z,8.13
2018-10-17T12:21:44.822Z,6.83
2018-10-17T12:24:14.016Z,7.93
2018-10-17T12:26:43.212Z,9.93
2018-10-17T12:29:12.280Z,8.80
2018-10-17T12:31:41.404Z,8.17
2018-10-17T12:34:11.457Z,8.37
2018-10-17T12:36:40.524Z,7.70
2018-10-17T12:39:12.597Z,7.10
2018-10-17T12:41:42.128Z,8.40
2018-10-17T12:44:12.220Z,9.23
2018-10-17T12:46:41.280Z,7.63
2018-10-17T12:49:12.537Z,8.83
2018-10-17T12:51:41.421Z,7.20
2018-10-17T12:54:12.329Z,8.30
2018-10-17T12:56:41.333Z,8.80
2018-10-17T12:59:10.890Z,7.63
2018-10-17T13:01:40.453Z,7.90
2018-10-17T13:04:11.726Z,8.03
2018-10-17T13:06:42.359Z,7.50
2018-10-17T13:09:13.319Z,8.87
2018-10-17T13:11:43.540Z,8.37
2018-10-17T13:14:12.516Z,9.37
2018-10-17T13:16:41.612Z,8.27
2018-10-17T13:19:12.098Z,8.73
2018-10-17T13:21:41.027Z,7.70
2018-10-17T13:24:13.031Z,7.33
2018-10-17T13:26:42.088Z,8.63
2018-10-17T13:29:13.639Z,8.97
2018-10-17T13:31:42.730Z,8.20
2018-10-17T13:34:12.262Z,7.77
2018-10-17T13:36:41.390Z,8.00
2018-10-17T13:39:12.674Z,9.07
2018-10-17T13:41:41.621Z,9.67
2018-10-17T13:44:11.457Z,7.87
2018-10-17T13:46:40.552Z,7.20
2018-10-17T13:49:11.006Z,7.60
2018-10-17T13:51:40.105Z,8.90
2018-10-17T13:54:09.400Z,7.83
2018-10-17T13:56:38.334Z,8.33
2018-10-17T13:59:07.550Z,10.50
2018-10-17T14:01:36.643Z,7.00
2018-10-17T14:04:05.914Z,7.27
2018-10-17T14:06:35.204Z,7.77
2018-10-17T14:09:06.993Z,7.03
2018-10-17T14:11:36.023Z,8.03
2018-10-17T14:14:05.381Z,7.57
2018-10-17T14:16:34.561Z,6.70
2018-10-17T14:19:03.888Z,7.17
2018-10-17T14:21:32.841Z,6.93
2018-10-17T14:24:02.076Z,6.30
2018-10-17T14:26:31.148Z,7.97
2018-10-17T14:29:00.135Z,9.33
2018-10-17T14:31:29.386Z,7.67
2018-10-17T14:33:58.570Z,7.80
2018-10-17T14:36:27.724Z,6.97
2018-10-17T14:38:57.558Z,6.50
2018-10-17T14:41:26.525Z,8.07
2018-10-17T14:43:55.497Z,7.83
2018-10-17T14:46:24.828Z,7.30
2018-10-17T14:48:54.115Z,6.23
2018-10-17T14:51:23.055Z,7.13
2018-10-17T14:53:52.216Z,7.13
2018-10-17T14:56:21.523Z,6.80
2018-10-17T14:58:51.686Z,6.77
2018-10-17T15:01:21.896Z,7.13
2018-10-17T15:03:50.917Z,9.00
2018-10-17T15:06:20.353Z,8.13
2018-10-17T15:08:50.019Z,6.97
2018-10-17T15:11:19.758Z,8.37
2018-10-17T15:13:49.058Z,9.17
2018-10-17T15:16:20.560Z,8.30
2018-10-17T15:18:53.458Z,7.17
2018-10-17T15:21:22.624Z,7.47
2018-10-17T15:23:51.807Z,8.33
2018-10-17T15:26:20.969Z,8.50
2018-10-17T15:28:50.450Z,8.37
2018-10-17T15:31:19.888Z,8.63
2018-10-17T15:33:49.307Z,7.67
2018-10-17T15:36:18.783Z,7.63
2018-10-17T15:38:47.876Z,8.27
2018-10-17T15:41:16.951Z,8.57
2018-10-17T15:43:46.426Z,8.23
2018-10-17T15:46:15.397Z,8.80
2018-10-17T15:48:44.386Z,9.00
2018-10-17T15:51:13.590Z,9.83
2018-10-17T15:53:42.646Z,9.77
2018-10-17T15:56:11.947Z,12.17
2018-10-17T15:58:41.058Z,8.03
2018-10-17T16:01:10.457Z,9.40
2018-10-17T16:03:39.716Z,7.50
2018-10-17T16:06:10.131Z,7.90
2018-10-17T16:08:39.157Z,8.80
2018-10-17T16:11:09.440Z,9.47
2018-10-17T16:13:38.646Z,7.87
2018-10-17T16:16:08.261Z,7.90
2018-10-17T16:18:37.690Z,7.33
2018-10-17T16:21:06.936Z,7.83
2018-10-17T16:23:36.176Z,7.80
2018-10-17T16:26:05.615Z,9.23
2018-10-17T16:28:34.734Z,8.17
2018-10-17T16:31:03.760Z,8.20
2018-10-17T16:33:32.958Z,7.67
2018-10-17T16:36:02.471Z,9.13
2018-10-17T16:38:31.475Z,9.73
2018-10-17T16:41:00.890Z,9.17
2018-10-17T16:43:30.146Z,8.13
2018-10-17T16:45:59.326Z,8.47
2018-10-17T16:48:28.488Z,7.03
2018-10-17T16:50:58.510Z,7.83
2018-10-17T16:53:27.571Z,6.27
2018-10-17T16:55:56.786Z,7.37
2018-10-17T16:58:26.229Z,7.37
2018-10-17T17:00:57.481Z,6.83
2018-10-17T17:03:26.860Z,7.67
2018-10-17T17:05:56.543Z,7.33
2018-10-17T17:08:25.796Z,6.70
2018-10-17T17:10:54.760Z,6.87
2018-10-17T17:13:24.115Z,7.30
2018-10-17T17:15:53.974Z,7.33
2018-10-17T17:18:23.772Z,8.77
2018-10-17T17:20:52.992Z,8.37
2018-10-17T17:23:23.642Z,7.33
2018-10-17T17:25:52.880Z,7.63
2018-10-17T17:28:27.763Z,8.70
2018-10-17T17:30:56.947Z,8.67
2018-10-17T17:33:27.183Z,6.60
2018-10-17T17:35:59.330Z,10.10
2018-10-17T17:38:31.450Z,8.20
2018-10-17T17:41:02.716Z,7.17
2018-10-17T17:43:33.848Z,7.97
2018-10-17T17:46:06.640Z,8.03
2018-10-17T17:48:36.864Z,7.27
2018-10-17T17:51:06.907Z,6.57
2018-10-17T17:53:40.190Z,6.13
2018-10-17T17:56:14.141Z,7.07
2018-10-17T17:58:44.085Z,8.57
2018-10-17T18:01:16.050Z,7.90
2018-10-17T18:03:45.862Z,5.80
2018-10-17T18:06:14.917Z,7.60
2018-10-17T18:08:44.000Z,7.10
2018-10-17T18:11:19.823Z,7.20
2018-10-17T18:13:50.888Z,7.07
2018-10-17T18:16:23.133Z,8.80
2018-10-17T18:18:52.670Z,6.33
2018-10-17T18:21:22.412Z,7.93
2018-10-17T18:23:52.573Z,6.70
2018-10-17T18:26:24.151Z,6.43
2018-10-17T18:28:54.183Z,6.63
2018-10-17T18:31:23.212Z,6.80
2018-10-17T18:33:52.415Z,5.63
2018-10-17T18:36:21.775Z,6.17
2018-10-17T18:38:51.291Z,5.77
2018-10-17T18:41:21.841Z,6.67
2018-10-17T18:43:51.229Z,6.73
2018-10-17T18:46:20.902Z,6.50
2018-10-17T18:48:50.073Z,5.87
2018-10-17T18:51:19.607Z,6.70
2018-10-17T18:53:48.771Z,7.17
2018-10-17T18:56:17.904Z,6.13
2018-10-17T18:58:47.391Z,5.97
2018-10-17T19:01:16.398Z,6.57
2018-10-17T19:03:46.175Z,6.80
2018-10-17T19:06:15.473Z,6.40
2018-10-17T19:08:44.441Z,6.27
2018-10-17T19:11:13.757Z,8.00
2018-10-17T19:13:43.079Z,6.90
2018-10-17T19:16:12.254Z,6.13
2018-10-17T19:18:41.282Z,7.27
2018-10-17T19:21:11.320Z,6.77
2018-10-17T19:23:40.325Z,6.93
2018-10-17T19:26:09.793Z,6.57
2018-10-17T19:28:39.173Z,7.30
2018-10-17T19:31:08.760Z,8.33
2018-10-17T19:33:37.759Z,6.43
2018-10-17T19:36:07.183Z,6.70
2018-10-17T19:38:36.224Z,7.03
2018-10-17T19:41:05.335Z,8.50
2018-10-17T19:43:35.547Z,6.77
2018-10-17T19:46:04.971Z,7.47
2018-10-17T19:48:34.068Z,7.50
2018-10-17T19:51:03.638Z,7.23
2018-10-17T19:53:32.908Z,6.47
2018-10-17T19:56:02.323Z,6.87
2018-10-17T19:58:31.376Z,7.53
2018-10-17T20:01:00.365Z,6.50
2018-10-17T20:03:29.378Z,6.50
2018-10-17T20:05:58.524Z,6.27
2018-10-17T20:08:27.521Z,6.47
2018-10-17T20:10:56.479Z,5.77
2018-10-17T20:13:25.535Z,7.13
2018-10-17T20:15:54.470Z,6.40
2018-10-17T20:18:23.681Z,6.33
2018-10-17T20:20:52.837Z,6.10
2018-10-17T20:23:21.753Z,7.33
2018-10-17T20:25:50.898Z,7.83
2018-10-17T20:28:20.484Z,8.07
2018-10-17T20:30:50.429Z,7.67
2018-10-17T20:33:19.665Z,6.03
2018-10-17T20:35:49.148Z,6.10
2018-10-17T20:38:18.447Z,7.53
2018-10-17T20:40:47.781Z,7.13
2018-10-17T20:43:17.010Z,6.87
2018-10-17T20:45:46.311Z,6.50
2018-10-17T20:48:15.317Z,6.43
2018-10-17T20:50:44.944Z,6.77
2018-10-17T20:53:13.896Z,6.87
2018-10-17T20:55:42.822Z,6.37
2018-10-17T20:58:12.089Z,6.53
2018-10-17T21:00:41.189Z,7.03
2018-10-17T21:03:10.467Z,6.93
2018-10-17T21:05:39.689Z,6.00
2018-10-17T21:08:09.858Z,6.47
2018-10-17T21:10:38.905Z,6.37
2018-10-17T21:13:08.683Z,8.20
2018-10-17T21:15:37.683Z,6.83
2018-10-17T21:18:06.697Z,6.60
2018-10-17T21:20:35.825Z,7.90
2018-10-17T21:23:04.839Z,6.87
2018-10-17T21:25:33.866Z,7.77
2018-10-17T21:28:03.264Z,6.70
2018-10-17T21:30:32.201Z,6.80
2018-10-17T21:33:01.225Z,7.10
2018-10-17T21:35:30.300Z,7.43
2018-10-17T21:37:59.318Z,6.80
2018-10-17T21:40:28.333Z,7.43
2018-10-17T21:42:57.482Z,6.80
2018-10-17T21:45:26.636Z,7.97
2018-10-17T21:47:55.680Z,8.50
2018-10-17T21:50:24.830Z,7.17
2018-10-17T21:52:53.810Z,8.03
2018-10-17T21:55:22.814Z,8.53
2018-10-17T21:57:52.092Z,8.53
2018-10-17T22:00:21.042Z,7.60
2018-10-17T22:02:50.641Z,7.43
2018-10-17T22:05:20.028Z,8.23
2018-10-17T22:07:49.318Z,7.57
2018-10-17T22:10:18.378Z,9.13
2018-10-17T22:12:48.897Z,8.03
2018-10-17T22:15:17.990Z,7.57
2018-10-17T22:17:46.932Z,7.37
2018-10-17T22:20:16.090Z,10.30
2018-10-17T22:22:50.117Z,8.57
2018-10-17T22:25:20.623Z,8.63
2018-10-17T22:27:50.151Z,7.40
2018-10-17T22:30:20.377Z,9.37
2018-10-17T22:32:49.870Z,8.30
2018-10-17T22:35:19.117Z,10.10
2018-10-17T22:37:48.521Z,10.40
2018-10-17T22:40:18.679Z,9.33
2018-10-17T22:42:47.980Z,9.97
2018-10-17T22:45:18.429Z,10.20
2018-10-17T22:47:48.094Z,10.77
2018-10-17T22:50:17.115Z,9.80
2018-10-17T22:53:03.228Z,9.60
2018-10-17T22:55:32.516Z,10.10
2018-10-17T22:58:01.513Z,9.50
2018-10-17T23:00:30.558Z,9.60
2018-10-17T23:02:59.917Z,10.10
2018-10-17T23:05:29.106Z,11.07
2018-10-17T23:07:58.188Z,9.53
2018-10-17T23:10:27.469Z,11.13
2018-10-17T23:12:56.791Z,10.00
2018-10-17T23:15:26.011Z,8.97
2018-10-17T23:17:55.405Z,8.80
2018-10-17T23:20:24.335Z,9.67
2018-10-17T23:22:53.571Z,11.40
2018-10-17T23:25:22.783Z,10.20
2018-10-17T23:27:51.861Z,10.87
2018-10-17T23:30:21.202Z,11.03
2018-10-17T23:32:50.840Z,9.47
2018-10-17T23:35:20.457Z,11.07
2018-10-17T23:37:50.011Z,10.37
2018-10-17T23:40:19.620Z,10.43
2018-10-17T23:42:49.997Z,8.87
2018-10-17T23:45:19.910Z,13.23
2018-10-17T23:47:51.091Z,10.10
2018-10-17T23:50:21.525Z,11.07
2018-10-17T23:52:50.832Z,11.53
2018-10-17T23:55:20.210Z,11.03
2018-10-17T23:57:51.279Z,11.67
